| time (UTC) | temp F | wind direction | speed MPH | gust MPH | rain 1hr in | rain 24hr in | rain mn in | humidity % | barometer mb |
| 20260504080909 | 0 | 145 | 200.0 | 0.0 | 0.00 | 0.00 | 0.00 | ||
| 20260504080859 | 92 | 0 | 0.0 | 0.0 | 0.00 | 0.00 | 0.00 | 68 | 1002.0 |
| 20260504050404 | 100 | 0 | 0.0 | 0.0 | 0.00 | 0.00 | 0.00 | 43 | 1005.0 |
| 20260504044840 | 101 | 0 | 0.0 | 0.0 | 0.00 | 0.00 | 0.00 | 43 | 1005.0 |
| 20260504043315 | 98 | 0 | 0.0 | 0.0 | 0.00 | 0.00 | 0.00 | 47 | 1005.0 |
| 20260504041751 | 99 | 0 | 0.0 | 0.0 | 0.00 | 0.00 | 0.00 | 47 | 1005.0 |
| 20260504040226 | 99 | 0 | 0.0 | 0.0 | 0.00 | 0.00 | 0.00 | 44 | 1005.0 |
| 20260504034702 | 100 | 0 | 0.0 | 0.0 | 0.00 | 0.00 | 0.00 | 44 | 1006.0 |
| 20260504033137 | 99 | 0 | 0.0 | 0.0 | 0.00 | 0.00 | 0.00 | 45 | 1006.0 |
| 20260504031613 | 99 | 0 | 0.0 | 0.0 | 0.00 | 0.00 | 0.00 | 46 | 1006.0 |
| 20260504030048 | 98 | 0 | 0.0 | 0.0 | 0.00 | 0.00 | 0.00 | 48 | 1006.0 |
| 20260504024524 | 97 | 0 | 0.0 | 0.0 | 0.00 | 0.00 | 0.00 | 50 | 1006.0 |
| 20260504022959 | 97 | 0 | 0.0 | 0.0 | 0.00 | 0.00 | 0.00 | 53 | 1006.0 |
| 20260504021435 | 95 | 0 | 0.0 | 0.0 | 0.00 | 0.00 | 0.00 | 55 | 1006.0 |
| 20260504015911 | 94 | 0 | 0.0 | 0.0 | 0.00 | 0.00 | 0.00 | 56 | 1006.0 |
| 20260504014346 | 94 | 0 | 0.0 | 0.0 | 0.00 | 0.00 | 0.00 | 59 | 1006.0 |
| 20260504012821 | 93 | 0 | 0.0 | 0.0 | 0.00 | 0.00 | 0.00 | 60 | 1006.0 |
| 20260504011257 | 92 | 0 | 0.0 | 0.0 | 0.00 | 0.00 | 0.00 | 63 | 1006.0 |
| 20260504005732 | 91 | 0 | 0.0 | 0.0 | 0.00 | 0.00 | 0.00 | 65 | 1006.0 |
| 20260504004218 | 0 | 145 | 200.0 | 0.0 | 0.00 | 0.00 | 0.00 | ||
| 20260504004207 | 91 | 0 | 0.0 | 0.0 | 0.00 | 0.00 | 0.00 | 66 | 1006.0 |
| 20260504002654 | 0 | 145 | 200.0 | 0.0 | 0.00 | 0.00 | 0.00 | ||
| 20260504002643 | 91 | 0 | 0.0 | 0.0 | 0.00 | 0.00 | 0.00 | 66 | 1005.0 |
| 20260504001129 | 0 | 145 | 200.0 | 0.0 | 0.00 | 0.00 | 0.00 | ||
| 20260504001118 | 90 | 0 | 0.0 | 0.0 | 0.00 | 0.00 | 0.00 | 68 | 1005.0 |
| 20260503235605 | 0 | 145 | 200.0 | 0.0 | 0.00 | 0.00 | 0.00 | ||
| 20260503235554 | 90 | 0 | 0.0 | 0.0 | 0.00 | 0.00 | 0.00 | 68 | 1005.0 |
| 20260503234040 | 0 | 145 | 200.0 | 0.0 | 0.00 | 0.00 | 0.00 | ||
| 20260503234029 | 90 | 0 | 0.0 | 0.0 | 0.00 | 0.00 | 0.00 | 67 | 1005.0 |
| 20260503232213 | 0 | 145 | 200.0 | 0.0 | 0.00 | 0.00 | 0.00 | ||
| 20260503232202 | 90 | 0 | 0.0 | 0.0 | 0.00 | 0.00 | 0.00 | 67 | 1005.0 |
| 20260503230648 | 0 | 145 | 200.0 | 0.0 | 0.00 | 0.00 | 0.00 | ||
| 20260503230637 | 90 | 0 | 0.0 | 0.0 | 0.00 | 0.00 | 0.00 | 67 | 1005.0 |
| 20260503225124 | 0 | 145 | 200.0 | 0.0 | 0.00 | 0.00 | 0.00 | ||
| 20260503225113 | 90 | 0 | 0.0 | 0.0 | 0.00 | 0.00 | 0.00 | 67 | 1004.0 |
| 20260503223559 | 0 | 145 | 200.0 | 0.0 | 0.00 | 0.00 | 0.00 | ||
| 20260503223548 | 90 | 0 | 0.0 | 0.0 | 0.00 | 0.00 | 0.00 | 67 | 1004.0 |
| 20260503222034 | 0 | 145 | 200.0 | 0.0 | 0.00 | 0.00 | 0.00 | ||
| 20260503222023 | 91 | 0 | 0.0 | 0.0 | 0.00 | 0.00 | 0.00 | 66 | 1004.0 |
| 20260503220510 | 0 | 145 | 200.0 | 0.0 | 0.00 | 0.00 | 0.00 | ||
| 20260503220459 | 90 | 0 | 0.0 | 0.0 | 0.00 | 0.00 | 0.00 | 66 | 1004.0 |
| 20260503214945 | 0 | 145 | 200.0 | 0.0 | 0.00 | 0.00 | 0.00 | ||
| 20260503214934 | 91 | 0 | 0.0 | 0.0 | 0.00 | 0.00 | 0.00 | 66 | 1004.0 |
| 20260503213421 | 0 | 145 | 200.0 | 0.0 | 0.00 | 0.00 | 0.00 | ||
| 20260503213410 | 91 | 0 | 0.0 | 0.0 | 0.00 | 0.00 | 0.00 | 66 | 1003.0 |
| 20260503211856 | 0 | 145 | 200.0 | 0.0 | 0.00 | 0.00 | 0.00 | ||
| 20260503211845 | 91 | 0 | 0.0 | 0.0 | 0.00 | 0.00 | 0.00 | 65 | 1003.0 |
| 20260503210332 | 0 | 145 | 200.0 | 0.0 | 0.00 | 0.00 | 0.00 | ||
| 20260503210321 | 91 | 0 | 0.0 | 0.0 | 0.00 | 0.00 | 0.00 | 65 | 1003.0 |
| 20260503204807 | 0 | 145 | 200.0 | 0.0 | 0.00 | 0.00 | 0.00 | ||
| 20260503204756 | 91 | 0 | 0.0 | 0.0 | 0.00 | 0.00 | 0.00 | 64 | 1003.0 |
| 20260503203243 | 0 | 145 | 200.0 | 0.0 | 0.00 | 0.00 | 0.00 | ||
| 20260503203232 | 91 | 0 | 0.0 | 0.0 | 0.00 | 0.00 | 0.00 | 62 | 1003.0 |
| 20260503201718 | 0 | 145 | 200.0 | 0.0 | 0.00 | 0.00 | 0.00 | ||
| 20260503201707 | 92 | 0 | 0.0 | 0.0 | 0.00 | 0.00 | 0.00 | 62 | 1003.0 |
| 20260503200154 | 0 | 145 | 200.0 | 0.0 | 0.00 | 0.00 | 0.00 | ||
| 20260503200143 | 92 | 0 | 0.0 | 0.0 | 0.00 | 0.00 | 0.00 | 61 | 1003.0 |
| 20260503195053 | 0 | 145 | 200.0 | 0.0 | 0.00 | 0.00 | 0.00 | ||
| 20260503195044 | 92 | 0 | 0.0 | 0.0 | 0.00 | 0.00 | 0.00 | 61 | 1003.0 |
| 20260503193529 | 0 | 145 | 200.0 | 0.0 | 0.00 | 0.00 | 0.00 | ||
| 20260503193518 | 92 | 0 | 0.0 | 0.0 | 0.00 | 0.00 | 0.00 | 62 | 1003.0 |
| 20260503192004 | 0 | 145 | 200.0 | 0.0 | 0.00 | 0.00 | 0.00 | ||
| 20260503191953 | 92 | 0 | 0.0 | 0.0 | 0.00 | 0.00 | 0.00 | 61 | 1003.0 |
| 20260503190440 | 0 | 145 | 200.0 | 0.0 | 0.00 | 0.00 | 0.00 | ||
| 20260503190429 | 92 | 0 | 0.0 | 0.0 | 0.00 | 0.00 | 0.00 | 62 | 1003.0 |
| 20260503185515 | 0 | 145 | 200.0 | 0.0 | 0.00 | 0.00 | 0.00 | ||
| 20260503185504 | 92 | 0 | 0.0 | 0.0 | 0.00 | 0.00 | 0.00 | 61 | 1004.0 |
| 20260503183951 | 0 | 145 | 200.0 | 0.0 | 0.00 | 0.00 | 0.00 | ||
| 20260503183940 | 92 | 0 | 0.0 | 0.0 | 0.00 | 0.00 | 0.00 | 61 | 1004.0 |
| 20260503182426 | 0 | 145 | 200.0 | 0.0 | 0.00 | 0.00 | 0.00 | ||
| 20260503182415 | 93 | 0 | 0.0 | 0.0 | 0.00 | 0.00 | 0.00 | 61 | 1004.0 |
| 20260503180902 | 0 | 145 | 200.0 | 0.0 | 0.00 | 0.00 | 0.00 | ||
| 20260503180851 | 93 | 0 | 0.0 | 0.0 | 0.00 | 0.00 | 0.00 | 60 | 1004.0 |
| 20260503175337 | 0 | 145 | 200.0 | 0.0 | 0.00 | 0.00 | 0.00 | ||
| 20260503175326 | 93 | 0 | 0.0 | 0.0 | 0.00 | 0.00 | 0.00 | 57 | 1004.0 |
| 20260503173812 | 0 | 145 | 200.0 | 0.0 | 0.00 | 0.00 | 0.00 | ||
| 20260503173802 | 93 | 0 | 0.0 | 0.0 | 0.00 | 0.00 | 0.00 | 54 | 1004.0 |
| 20260503172248 | 0 | 145 | 200.0 | 0.0 | 0.00 | 0.00 | 0.00 | ||
| 20260503172237 | 93 | 0 | 0.0 | 0.0 | 0.00 | 0.00 | 0.00 | 53 | 1004.0 |
| 20260503170724 | 0 | 145 | 200.0 | 0.0 | 0.00 | 0.00 | 0.00 | ||
| 20260503170712 | 93 | 0 | 0.0 | 0.0 | 0.00 | 0.00 | 0.00 | 52 | 1004.0 |
| 20260503150409 | 0 | 145 | 200.0 | 0.0 | 0.00 | 0.00 | 0.00 | ||
| 20260503150356 | 95 | 0 | 0.0 | 0.0 | 0.00 | 0.00 | 0.00 | 51 | 1003.0 |
| 20260503140229 | 0 | 145 | 200.0 | 0.0 | 0.00 | 0.00 | 0.00 | ||
| 20260503140218 | 96 | 0 | 0.0 | 0.0 | 0.00 | 0.00 | 0.00 | 46 | 1002.0 |